Mazie, Kentucky
Current Conditions -  °F | °C
As of 2:35 PM on Friday 31 Oct 2014 (Local Time) from KSJS Reporting Station
Light Rain Light Rain  
Wind Chill: 45°   Ceiling: 1600
Heat Index: 45°   Visibility: 10mi
Dew Point: 41°   Wind: 0mph
Humidity: 87%   Direction: NA
Pressure: 29.89"   Gusts: NA
Location:  38.03°N, 82.97°W
Report Text: KSJS 311835Z AUTO 00000KT 10SM -RA OVC016 07/05 A2989 RMK AO2 T00700049
Loading
Personal Weather Stations






























Interactive Weather Map
Tropical Storm Tracking
New forecast layout! Learn more

10-Day Weather Forecast

Advertisements
Track Severe Weather on mobile